PBD6509 UWKD-UUEE
Flight info
| Callsign | PBD6509 |
|---|---|
| Flight time | N/A |
| Altitude | 38000 |
| Route | APTAR1H APTAR L158 DIMGI DIMGI3F |
| Aircraft | B38M/M-SDE1FGHILORVWXY/HB1 |
Departure
| Time | 2026-04-29 17:46 |
|---|---|
| Airport | Kazan International Airport (UWKD) |
Arrival
| Time | N/A |
|---|---|
| Airport | Sheremetyevo International Airport (UUEE) |
| Time | Latitude | Longitude | Altitude | Speed | Heading |
|---|---|---|---|---|---|
| 2026-04-29 17:29 | 55.60651 | 49.29732 | 406 ft | 0 kts | 34° |
| 2026-04-29 17:41 | 55.60654 | 49.29736 | 409 ft | 2 kts | 34° |
| 2026-04-29 17:41 | 55.60674 | 49.29760 | 408 ft | 5 kts | 38° |
| 2026-04-29 17:41 | 55.60676 | 49.29826 | 409 ft | 7 kts | 114° |
| 2026-04-29 17:41 | 55.60644 | 49.29916 | 409 ft | 10 kts | 124° |
| 2026-04-29 17:42 | 55.60595 | 49.30041 | 409 ft | 14 kts | 124° |
| 2026-04-29 17:42 | 55.60521 | 49.30085 | 407 ft | 11 kts | 212° |
| 2026-04-29 17:42 | 55.60460 | 49.30006 | 409 ft | 13 kts | 214° |
| 2026-04-29 17:42 | 55.60407 | 49.29941 | 409 ft | 15 kts | 214° |
| 2026-04-29 17:43 | 55.60257 | 49.29893 | 409 ft | 19 kts | 161° |
| 2026-04-29 17:43 | 55.60169 | 49.29961 | 409 ft | 19 kts | 154° |
| 2026-04-29 17:43 | 55.60050 | 49.30063 | 409 ft | 17 kts | 154° |
| 2026-04-29 17:43 | 55.59931 | 49.30119 | 409 ft | 18 kts | 194° |
| 2026-04-29 17:44 | 55.59911 | 49.30106 | 408 ft | 0 kts | 205° |
| 2026-04-29 17:44 | 55.59902 | 49.30097 | 409 ft | 5 kts | 210° |
| 2026-04-29 17:44 | 55.59842 | 49.30026 | 409 ft | 15 kts | 222° |
| 2026-04-29 17:44 | 55.59834 | 49.29917 | 410 ft | 7 kts | 301° |
| 2026-04-29 17:45 | 55.59869 | 49.29825 | 410 ft | 12 kts | 304° |
| 2026-04-29 17:45 | 55.60021 | 49.29436 | 406 ft | 75 kts | 305° |
| 2026-04-29 17:45 | 55.60447 | 49.28338 | 406 ft | 139 kts | 304° |
| 2026-04-29 17:45 | 55.61112 | 49.26697 | 487 ft | 183 kts | 304° |
| 2026-04-29 17:46 | 55.61826 | 49.24678 | 1051 ft | 196 kts | 295° |
| 2026-04-29 17:46 | 55.62214 | 49.22486 | 2288 ft | 185 kts | 275° |
| 2026-04-29 17:46 | 55.62032 | 49.20094 | 2635 ft | 213 kts | 248° |
| 2026-04-29 17:46 | 55.61383 | 49.17676 | 3503 ft | 219 kts | 246° |
| 2026-04-29 17:47 | 55.60846 | 49.15056 | 3717 ft | 232 kts | 262° |
| 2026-04-29 17:47 | 55.60918 | 49.12139 | 4093 ft | 242 kts | 280° |
| 2026-04-29 17:47 | 55.61193 | 49.09248 | 5144 ft | 240 kts | 274° |
| 2026-04-29 17:47 | 55.61395 | 49.06266 | 5951 ft | 246 kts | 275° |
| 2026-04-29 17:48 | 55.61611 | 49.03259 | 6791 ft | 249 kts | 275° |
| 2026-04-29 17:48 | 55.61843 | 49.00181 | 7600 ft | 254 kts | 275° |
| 2026-04-29 17:48 | 55.62081 | 48.97073 | 8395 ft | 257 kts | 276° |
| 2026-04-29 17:48 | 55.62327 | 48.93918 | 9183 ft | 260 kts | 276° |
| 2026-04-29 17:49 | 55.62577 | 48.90729 | 9995 ft | 264 kts | 276° |
| 2026-04-29 17:49 | 55.62835 | 48.87445 | 10526 ft | 276 kts | 276° |
| 2026-04-29 17:49 | 55.63106 | 48.83959 | 10805 ft | 296 kts | 276° |
| 2026-04-29 17:49 | 55.63392 | 48.80239 | 11097 ft | 314 kts | 276° |
| 2026-04-29 17:50 | 55.63692 | 48.76354 | 11590 ft | 324 kts | 276° |
| 2026-04-29 17:50 | 55.64000 | 48.72368 | 12326 ft | 327 kts | 276° |
| 2026-04-29 17:50 | 55.64312 | 48.68346 | 13051 ft | 331 kts | 276° |
| 2026-04-29 17:50 | 55.64626 | 48.64280 | 13782 ft | 335 kts | 276° |
| 2026-04-29 17:51 | 55.64941 | 48.60169 | 14469 ft | 339 kts | 276° |
| 2026-04-29 17:51 | 55.65258 | 48.56031 | 15220 ft | 340 kts | 276° |
| 2026-04-29 17:51 | 55.65576 | 48.51855 | 15938 ft | 343 kts | 275° |
| 2026-04-29 17:51 | 55.65894 | 48.47659 | 16683 ft | 346 kts | 275° |
| 2026-04-29 17:52 | 55.66215 | 48.43416 | 17397 ft | 349 kts | 275° |
| 2026-04-29 17:52 | 55.66428 | 48.40591 | 17860 ft | 350 kts | 275° |
| 2026-04-29 17:52 | 55.66860 | 48.34822 | 18727 ft | 355 kts | 275° |
| 2026-04-29 17:52 | 55.67074 | 48.31949 | 19121 ft | 356 kts | 275° |
| 2026-04-29 17:53 | 55.67151 | 48.30923 | 19255 ft | 357 kts | 275° |
| 2026-04-29 17:53 | 55.67476 | 48.26537 | 19822 ft | 361 kts | 275° |
| 2026-04-29 17:54 | 55.67802 | 48.22109 | 20040 ft | 363 kts | 275° |
| 2026-04-29 17:54 | 55.68127 | 48.17688 | 20073 ft | 362 kts | 275° |
| 2026-04-29 17:54 | 55.68452 | 48.13251 | 20076 ft | 362 kts | 275° |
| 2026-04-29 17:54 | 55.68774 | 48.08811 | 20072 ft | 363 kts | 275° |
| 2026-04-29 17:55 | 55.69095 | 48.04377 | 20073 ft | 363 kts | 275° |
| 2026-04-29 17:55 | 55.69414 | 47.99940 | 20072 ft | 363 kts | 275° |
| 2026-04-29 17:55 | 55.69732 | 47.95499 | 20071 ft | 364 kts | 275° |
| 2026-04-29 17:55 | 55.70050 | 47.91034 | 20075 ft | 364 kts | 275° |
| 2026-04-29 17:56 | 55.70365 | 47.86588 | 20073 ft | 365 kts | 275° |
| 2026-04-29 17:56 | 55.70680 | 47.82121 | 20076 ft | 365 kts | 275° |
| 2026-04-29 17:56 | 55.70970 | 47.77976 | 20071 ft | 365 kts | 275° |
| 2026-04-29 17:56 | 55.71283 | 47.73494 | 20070 ft | 366 kts | 275° |
| 2026-04-29 17:57 | 55.71594 | 47.69013 | 20071 ft | 366 kts | 275° |
| 2026-04-29 17:57 | 55.71903 | 47.64527 | 20068 ft | 367 kts | 275° |
| 2026-04-29 17:57 | 55.72212 | 47.60027 | 20073 ft | 367 kts | 275° |
| 2026-04-29 17:57 | 55.72416 | 47.57047 | 20072 ft | 367 kts | 275° |
| 2026-04-29 17:58 | 55.72825 | 47.51023 | 20074 ft | 368 kts | 275° |
| 2026-04-29 17:58 | 55.73125 | 47.46584 | 20070 ft | 368 kts | 275° |
| 2026-04-29 17:58 | 55.73431 | 47.42017 | 20070 ft | 369 kts | 275° |
| 2026-04-29 17:58 | 55.73733 | 47.37493 | 20071 ft | 369 kts | 276° |
| 2026-04-29 17:59 | 55.74030 | 47.33025 | 20069 ft | 369 kts | 276° |
| 2026-04-29 17:59 | 55.74332 | 47.28444 | 20068 ft | 370 kts | 276° |
| 2026-04-29 17:59 | 55.74626 | 47.23967 | 20067 ft | 370 kts | 276° |
| 2026-04-29 17:59 | 55.74925 | 47.19380 | 20066 ft | 371 kts | 276° |
| 2026-04-29 18:00 | 55.75222 | 47.14808 | 20548 ft | 371 kts | 276° |
| 2026-04-29 18:00 | 55.75417 | 47.11785 | 20865 ft | 375 kts | 276° |
| 2026-04-29 18:00 | 55.75645 | 47.08245 | 21238 ft | 378 kts | 276° |
| 2026-04-29 18:01 | 55.75943 | 47.03582 | 21774 ft | 381 kts | 276° |
| 2026-04-29 18:01 | 55.76242 | 46.98877 | 22274 ft | 385 kts | 277° |
| 2026-04-29 18:01 | 55.76542 | 46.94129 | 22783 ft | 389 kts | 277° |
| 2026-04-29 18:01 | 55.76843 | 46.89323 | 23264 ft | 394 kts | 277° |
| 2026-04-29 18:02 | 55.77146 | 46.84463 | 23722 ft | 398 kts | 277° |
| 2026-04-29 18:02 | 55.77448 | 46.79557 | 24135 ft | 401 kts | 277° |
| 2026-04-29 18:02 | 55.77752 | 46.74618 | 24569 ft | 403 kts | 277° |
| 2026-04-29 18:02 | 55.78054 | 46.69665 | 24990 ft | 406 kts | 277° |
| 2026-04-29 18:03 | 55.78359 | 46.64652 | 25406 ft | 408 kts | 277° |
| 2026-04-29 18:03 | 55.78460 | 46.62972 | 25540 ft | 409 kts | 277° |
| 2026-04-29 18:03 | 55.78601 | 46.60622 | 25732 ft | 410 kts | 277° |
| 2026-04-29 18:03 | 55.78905 | 46.55563 | 26129 ft | 413 kts | 277° |
| 2026-04-29 18:04 | 55.79212 | 46.50401 | 26546 ft | 415 kts | 277° |
| 2026-04-29 18:04 | 55.79384 | 46.47190 | 26804 ft | 416 kts | 274° |
| 2026-04-29 18:04 | 55.79541 | 46.42035 | 27189 ft | 419 kts | 274° |
| 2026-04-29 18:05 | 55.79705 | 46.36853 | 27563 ft | 421 kts | 274° |
| 2026-04-29 18:05 | 55.79875 | 46.31628 | 27947 ft | 424 kts | 274° |
| 2026-04-29 18:05 | 55.80046 | 46.26387 | 28317 ft | 426 kts | 274° |
| 2026-04-29 18:05 | 55.80218 | 46.21111 | 28677 ft | 428 kts | 274° |
| 2026-04-29 18:06 | 55.80389 | 46.15798 | 29031 ft | 431 kts | 274° |
| 2026-04-29 18:06 | 55.80557 | 46.10470 | 29386 ft | 433 kts | 273° |
| 2026-04-29 18:06 | 55.80724 | 46.05113 | 29726 ft | 435 kts | 273° |
| 2026-04-29 18:06 | 55.80890 | 45.99718 | 30057 ft | 437 kts | 273° |
| 2026-04-29 18:07 | 55.81055 | 45.94313 | 30325 ft | 439 kts | 273° |
| 2026-04-29 18:07 | 55.81217 | 45.88885 | 30569 ft | 442 kts | 273° |
| 2026-04-29 18:07 | 55.81379 | 45.83404 | 30820 ft | 444 kts | 273° |
| 2026-04-29 18:07 | 55.81538 | 45.77927 | 31079 ft | 446 kts | 272° |
| 2026-04-29 18:08 | 55.81696 | 45.72397 | 31404 ft | 446 kts | 272° |
| 2026-04-29 18:08 | 55.81849 | 45.66962 | 31740 ft | 446 kts | 272° |
| 2026-04-29 18:08 | 55.82001 | 45.61443 | 32071 ft | 446 kts | 272° |
| 2026-04-29 18:08 | 55.82151 | 45.55943 | 32399 ft | 446 kts | 272° |
| 2026-04-29 18:09 | 55.82299 | 45.50436 | 32727 ft | 446 kts | 272° |
| 2026-04-29 18:09 | 55.82444 | 45.44925 | 33054 ft | 446 kts | 272° |
| 2026-04-29 18:09 | 55.82587 | 45.39409 | 33383 ft | 445 kts | 271° |
| 2026-04-29 18:09 | 55.82728 | 45.33845 | 33722 ft | 445 kts | 271° |
| 2026-04-29 18:10 | 55.82864 | 45.28418 | 34046 ft | 445 kts | 271° |
| 2026-04-29 18:10 | 55.82999 | 45.22914 | 34306 ft | 445 kts | 271° |
| 2026-04-29 18:10 | 55.83133 | 45.17354 | 34556 ft | 445 kts | 271° |
| 2026-04-29 18:10 | 55.83262 | 45.11920 | 34790 ft | 445 kts | 271° |
| 2026-04-29 18:11 | 55.83392 | 45.06415 | 35026 ft | 446 kts | 271° |
| 2026-04-29 18:11 | 55.83520 | 45.00840 | 35271 ft | 446 kts | 271° |
| 2026-04-29 18:11 | 55.83643 | 44.95322 | 35506 ft | 446 kts | 271° |
| 2026-04-29 18:11 | 55.83762 | 44.89877 | 35734 ft | 446 kts | 271° |
| 2026-04-29 18:12 | 55.83883 | 44.84295 | 35969 ft | 446 kts | 271° |
| 2026-04-29 18:12 | 55.84000 | 44.78768 | 36212 ft | 446 kts | 271° |
| 2026-04-29 18:12 | 55.84115 | 44.73261 | 36441 ft | 447 kts | 271° |
| 2026-04-29 18:12 | 55.84228 | 44.67732 | 36672 ft | 447 kts | 271° |
| 2026-04-29 18:13 | 55.84335 | 44.62323 | 36884 ft | 447 kts | 271° |
| 2026-04-29 18:13 | 55.84443 | 44.56790 | 37105 ft | 447 kts | 271° |
| 2026-04-29 18:13 | 55.84549 | 44.51231 | 37319 ft | 447 kts | 271° |
| 2026-04-29 18:13 | 55.84652 | 44.45701 | 37515 ft | 447 kts | 271° |
| 2026-04-29 18:14 | 55.84719 | 44.42035 | 37649 ft | 447 kts | 270° |